Time;durP1;ratioP1;P1;durP2;ratioP2;P2;SDS_P1;SDS_P2;PMS_P1;PMS_P2;Temp;Humidity;BMP_temperature;BMP_pressure;BME280_temperature;BME280_humidity;BME280_pressure;Samples;Min_cycle;Max_cycle;Signal;HPM_P1;HPM_P2
2022/09/13 00:01:57;;;;;;;2.33;2.00;;;;;;;15.08;69.91;95254.22;5031239;28;20202;-83
2022/09/13 00:04:22;;;;;;;3.28;1.90;;;;;;;15.01;70.51;95254.16;5024854;28;20594;-82
2022/09/13 00:06:48;;;;;;;2.08;1.98;;;;;;;15.02;69.96;95261.03;5047028;28;20209;-82
2022/09/13 00:09:13;;;;;;;2.08;1.90;;;;;;;15.07;70.36;95255.22;5036295;28;20178;-82
2022/09/13 00:11:38;;;;;;;3.20;2.15;;;;;;;15.00;70.82;95257.75;5022971;28;20201;-82
2022/09/13 00:14:03;;;;;;;2.50;2.28;;;;;;;14.99;70.82;95250.91;5045938;28;20182;-82
2022/09/13 00:16:29;;;;;;;4.38;2.40;;;;;;;15.04;70.45;95260.84;5043164;28;20225;-81
2022/09/13 00:18:55;;;;;;;1.83;1.73;;;;;;;15.06;70.26;95256.22;5044207;28;20194;-81
2022/09/13 00:21:22;;;;;;;2.97;2.00;;;;;;;15.02;69.78;95253.97;5023568;28;20174;-82
2022/09/13 00:23:49;;;;;;;5.18;2.15;;;;;;;15.08;69.83;95256.84;5037408;28;20202;-82
2022/09/13 00:26:17;;;;;;;2.30;1.88;;;;;;;15.12;69.20;95250.28;5034713;28;20237;-82
2022/09/13 00:28:44;;;;;;;3.30;1.67;;;;;;;15.11;68.84;95246.84;5032331;28;20193;-82
2022/09/13 00:31:10;;;;;;;2.50;1.90;;;;;;;15.16;68.34;95239.25;5042560;28;20217;-82
2022/09/13 00:33:35;;;;;;;2.00;1.80;;;;;;;15.18;67.94;95231.22;5026756;28;20186;-82
2022/09/13 00:36:05;;;;;;;1.90;1.80;;;;;;;15.23;67.41;95226.25;5041950;28;20214;-82
2022/09/13 00:38:33;;;;;;;2.05;1.58;;;;;;;15.24;66.98;95220.03;5027306;28;20182;-81
2022/09/13 00:40:58;;;;;;;3.90;1.75;;;;;;;15.23;66.81;95218.41;5034860;28;20205;-81
2022/09/13 00:43:45;;;;;;;1.60;1.50;;;;;;;15.35;65.83;95223.97;5038352;28;20657;-82
2022/09/13 00:46:14;;;;;;;2.03;1.60;;;;;;;15.35;66.18;95221.34;5025775;28;20240;-82
2022/09/13 00:48:39;;;;;;;2.20;1.90;;;;;;;15.25;65.88;95224.25;5043372;28;20189;-81
2022/09/13 00:51:05;;;;;;;2.15;1.85;;;;;;;15.19;66.52;95217.94;5023379;28;20212;-81
2022/09/13 00:53:33;;;;;;;2.45;1.73;;;;;;;15.10;66.68;95208.59;5026595;28;20186;-81
2022/09/13 00:56:01;;;;;;;2.95;1.85;;;;;;;14.97;67.34;95209.25;5027169;28;20214;-81
2022/09/13 00:58:32;;;;;;;2.10;1.70;;;;;;;14.87;67.53;95213.97;5030222;28;20273;-82
2022/09/13 01:00:58;;;;;;;5.38;1.90;;;;;;;14.80;68.00;95214.88;5041534;28;20182;-81
2022/09/13 01:03:25;;;;;;;1.92;1.63;;;;;;;14.72;67.95;95213.97;5038372;28;20178;-82
2022/09/13 01:05:59;;;;;;;3.47;1.48;;;;;;;14.71;67.89;95211.53;5024441;28;20292;-82
2022/09/13 01:08:26;;;;;;;1.80;1.70;;;;;;;14.68;67.83;95212.72;5054208;28;20190;-81
2022/09/13 01:10:52;;;;;;;1.58;1.48;;;;;;;14.67;68.17;95218.13;5064702;28;20177;-83
2022/09/13 01:13:20;;;;;;;2.00;1.80;;;;;;;14.56;68.93;95221.97;5038658;28;20224;-82
2022/09/13 01:15:46;;;;;;;3.28;1.95;;;;;;;14.42;69.94;95220.97;5042991;28;20217;-82
2022/09/13 01:18:11;;;;;;;3.17;1.85;;;;;;;14.37;70.49;95222.47;5048307;28;20174;-83
2022/09/13 01:21:07;;;;;;;2.35;2.00;;;;;;;14.32;70.75;95217.81;5035078;28;20190;-82
2022/09/13 01:24:02;;;;;;;1.63;1.52;;;;;;;14.26;71.26;95208.06;5050870;28;20277;-82
2022/09/13 01:26:53;;;;;;;1.90;1.80;;;;;;;14.21;71.26;95210.38;5048344;28;20564;-83
2022/09/13 01:29:35;;;;;;;2.10;1.90;;;;;;;14.15;71.05;95216.34;5044278;28;20198;-82
2022/09/13 01:32:09;;;;;;;1.90;1.80;;;;;;;14.05;70.96;95213.16;5027322;28;20677;-81
2022/09/13 01:34:46;;;;;;;2.20;1.90;;;;;;;13.99;71.75;95219.09;5043704;28;20223;-82
2022/09/13 01:37:32;;;;;;;2.00;1.90;;;;;;;13.96;71.23;95224.66;5041439;28;20284;-81
2022/09/13 01:40:11;;;;;;;1.90;1.80;;;;;;;13.87;71.80;95226.53;5037109;28;20197;-81
2022/09/13 01:42:47;;;;;;;3.53;1.80;;;;;;;13.81;72.49;95222.81;5039470;28;20182;-81
2022/09/13 01:45:31;;;;;;;1.83;1.73;;;;;;;13.74;72.72;95221.88;5026206;28;20245;-82
2022/09/13 01:48:02;;;;;;;2.10;1.80;;;;;;;13.70;72.95;95220.63;5035447;28;20535;-81
2022/09/13 01:50:47;;;;;;;2.25;1.58;;;;;;;13.72;72.56;95221.25;5033434;28;20552;-82
2022/09/13 01:53:31;;;;;;;1.70;1.60;;;;;;;13.70;72.93;95219.81;5026155;28;20190;-82
2022/09/13 01:56:25;;;;;;;2.08;1.60;;;;;;;13.66;72.91;95219.34;5038670;28;20230;-81
2022/09/13 01:58:55;;;;;;;2.40;2.20;;;;;;;13.66;72.90;95227.16;5037463;28;20272;-82
2022/09/13 02:01:30;;;;;;;1.70;1.50;;;;;;;13.67;72.36;95231.41;5024743;28;20236;-82
2022/09/13 02:04:04;;;;;;;3.10;1.60;;;;;;;13.69;71.39;95237.25;5025273;28;20190;-82
2022/09/13 02:06:35;;;;;;;1.80;1.70;;;;;;;13.75;70.71;95244.38;5052623;28;20213;-82
2022/09/13 02:09:08;;;;;;;2.45;1.50;;;;;;;13.78;70.11;95243.22;5043009;28;20220;-82
2022/09/13 02:11:35;;;;;;;1.50;1.40;;;;;;;13.75;70.03;95233.94;5034479;28;20185;-83
2022/09/13 02:14:09;;;;;;;1.55;1.45;;;;;;;13.73;70.16;95232.50;5050047;28;20191;-82
2022/09/13 02:16:38;;;;;;;1.45;1.35;;;;;;;13.68;70.70;95232.22;5029641;28;20210;-82
2022/09/13 02:19:09;;;;;;;3.25;2.03;;;;;;;13.65;71.10;95230.78;5041859;28;20257;-83
2022/09/13 02:21:43;;;;;;;3.75;1.55;;;;;;;13.61;71.54;95234.72;5036417;28;20811;-82
2022/09/13 02:24:13;;;;;;;1.60;1.50;;;;;;;13.62;71.14;95238.94;5026933;28;20225;-82
2022/09/13 02:26:39;;;;;;;1.90;1.70;;;;;;;13.73;70.50;95235.94;5045915;28;20220;-81
2022/09/13 02:29:10;;;;;;;3.05;1.90;;;;;;;13.81;69.84;95241.09;5045554;28;20191;-82
2022/09/13 02:31:41;;;;;;;2.22;2.03;;;;;;;13.84;69.39;95238.13;5043791;28;20189;-82
2022/09/13 02:34:11;;;;;;;2.50;1.63;;;;;;;13.89;69.39;95235.81;5026170;28;20607;-81
2022/09/13 02:36:41;;;;;;;1.98;1.80;;;;;;;13.86;69.67;95240.53;5034212;28;20206;-82
2022/09/13 02:39:12;;;;;;;1.50;1.40;;;;;;;13.85;69.69;95244.16;5032594;28;20186;-82
2022/09/13 02:42:06;;;;;;;1.98;1.88;;;;;;;13.87;69.76;95239.59;5032174;28;20185;-82
2022/09/13 02:44:37;;;;;;;2.20;1.80;;;;;;;13.84;69.91;95230.28;5028629;28;20182;-82
2022/09/13 02:47:21;;;;;;;1.77;1.60;;;;;;;13.87;70.30;95222.13;5025836;28;20182;-83
2022/09/13 02:49:58;;;;;;;1.88;1.67;;;;;;;13.79;70.54;95213.56;5028107;28;20174;-82
2022/09/13 02:52:30;;;;;;;3.25;1.73;;;;;;;13.70;71.28;95219.81;5044182;28;20197;-82
2022/09/13 02:55:03;;;;;;;1.92;1.60;;;;;;;13.63;71.78;95211.88;5046011;28;20214;-82
2022/09/13 02:57:37;;;;;;;3.20;1.67;;;;;;;13.58;72.37;95204.56;5045871;28;20189;-82
2022/09/13 03:00:04;;;;;;;2.35;1.65;;;;;;;13.54;72.54;95213.72;5044322;28;20341;-82
2022/09/13 03:02:33;;;;;;;1.98;1.77;;;;;;;13.58;72.52;95203.75;5037331;28;20605;-82
2022/09/13 03:04:59;;;;;;;2.13;1.90;;;;;;;13.53;72.99;95199.06;5044503;28;20232;-82
2022/09/13 03:07:25;;;;;;;1.70;1.60;;;;;;;13.50;73.20;95188.16;5054115;28;20194;-82
2022/09/13 03:09:56;;;;;;;2.67;1.50;;;;;;;13.47;73.20;95196.31;5039197;28;20182;-83
2022/09/13 03:12:43;;;;;;;1.80;1.70;;;;;;;13.42;73.58;95191.63;5047121;28;20214;-82
2022/09/13 03:15:53;;;;;;;1.85;1.55;;;;;;;13.39;73.86;95197.19;5047693;28;20213;-81
2022/09/13 03:18:36;;;;;;;1.90;1.50;;;;;;;13.35;73.93;95208.97;4944130;29;20268;-82
2022/09/13 03:21:46;;;;;;;2.13;1.67;;;;;;;13.34;73.91;95212.56;5028836;28;20198;-81
2022/09/13 03:24:23;;;;;;;1.83;1.70;;;;;;;13.37;73.78;95214.00;4954501;28;20215;-82
2022/09/13 03:27:05;;;;;;;2.13;1.92;;;;;;;13.33;74.48;95208.31;4973936;28;20223;-82
2022/09/13 03:29:39;;;;;;;3.22;1.65;;;;;;;13.30;74.36;95198.22;4956519;28;20267;-82
2022/09/13 03:32:15;;;;;;;1.58;1.48;;;;;;;13.25;74.36;95197.91;4957152;28;20199;-81
2022/09/13 03:35:03;;;;;;;2.75;2.05;;;;;;;13.24;75.12;95198.91;4974208;28;20627;-83
2022/09/13 03:37:45;;;;;;;1.85;1.75;;;;;;;13.21;75.35;95188.84;4956417;28;20193;-82
2022/09/13 03:40:17;;;;;;;3.47;1.98;;;;;;;13.18;76.09;95187.38;4972671;28;20185;-82
2022/09/13 03:42:49;;;;;;;1.70;1.60;;;;;;;13.15;76.09;95190.28;4957678;28;20191;-82
2022/09/13 03:45:17;;;;;;;2.10;1.88;;;;;;;13.12;75.70;95184.63;4972684;28;20939;-82
2022/09/13 03:47:45;;;;;;;1.75;1.50;;;;;;;13.14;76.20;95185.25;4974426;28;20193;-82
2022/09/13 03:50:15;;;;;;;2.97;1.80;;;;;;;13.14;76.64;95178.25;4957639;28;20277;-82
2022/09/13 03:52:41;;;;;;;2.42;1.60;;;;;;;13.15;76.75;95176.44;4953954;28;20370;-83
2022/09/13 03:55:06;;;;;;;3.58;1.58;;;;;;;13.16;76.41;95172.84;4955198;28;20236;-82
2022/09/13 03:57:32;;;;;;;2.08;1.60;;;;;;;13.17;76.24;95175.31;4991204;28;20558;-82
2022/09/13 03:59:57;;;;;;;4.43;1.70;;;;;;;13.13;76.33;95174.00;5045477;28;20186;-84
2022/09/13 04:02:25;;;;;;;2.03;1.58;;;;;;;13.10;76.71;95170.97;5026594;28;20631;-83
2022/09/13 04:04:50;;;;;;;1.80;1.70;;;;;;;13.10;76.78;95171.75;5034271;28;20178;-83
2022/09/13 04:07:17;;;;;;;1.93;1.40;;;;;;;13.09;76.89;95169.34;5042592;28;20559;-83
2022/09/13 04:09:43;;;;;;;2.80;1.70;;;;;;;13.10;77.26;95171.75;5030370;28;20418;-83
2022/09/13 04:12:12;;;;;;;3.50;1.80;;;;;;;13.11;77.12;95181.22;5024681;28;20193;-83
2022/09/13 04:14:38;;;;;;;3.72;2.50;;;;;;;13.20;77.32;95195.03;5032797;28;20286;-83
2022/09/13 04:17:03;;;;;;;2.20;1.95;;;;;;;13.33;76.48;95187.44;5029819;28;20635;-83
2022/09/13 04:19:30;;;;;;;3.40;3.10;;;;;;;13.42;76.22;95185.59;5035238;28;20229;-82
2022/09/13 04:21:55;;;;;;;2.97;2.60;;;;;;;13.46;76.06;95192.09;5044284;28;20193;-83
2022/09/13 04:24:25;;;;;;;5.95;2.28;;;;;;;13.59;76.11;95187.09;5031884;28;20243;-83
2022/09/13 04:26:52;;;;;;;1.92;1.83;;;;;;;13.59;76.10;95192.31;5038491;28;20198;-83
2022/09/13 04:29:17;;;;;;;2.50;1.97;;;;;;;13.63;76.16;95185.78;5043018;28;20289;-83
2022/09/13 04:31:46;;;;;;;2.08;1.75;;;;;;;13.67;75.97;95189.66;5027698;28;20213;-83
2022/09/13 04:34:11;;;;;;;2.70;1.90;;;;;;;13.66;76.17;95195.03;5044700;28;20186;-83
2022/09/13 04:36:37;;;;;;;4.07;2.10;;;;;;;13.67;76.08;95202.69;5042470;28;20217;-83
2022/09/13 04:39:03;;;;;;;2.40;1.70;;;;;;;13.68;76.00;95199.09;5025475;28;20193;-84
2022/09/13 04:41:28;;;;;;;1.80;1.70;;;;;;;13.69;76.04;95205.94;5045208;28;20268;-83
2022/09/13 04:43:53;;;;;;;3.38;2.00;;;;;;;13.66;76.06;95208.91;5043883;28;20256;-82
2022/09/13 04:46:19;;;;;;;2.10;1.90;;;;;;;13.64;76.70;95202.25;5040313;28;20286;-83
2022/09/13 04:48:51;;;;;;;3.10;1.90;;;;;;;13.63;76.46;95203.22;5045336;28;20279;-83
2022/09/13 04:51:17;;;;;;;2.37;1.87;;;;;;;13.73;76.27;95195.97;5039309;28;20177;-82
2022/09/13 04:53:43;;;;;;;2.60;2.40;;;;;;;13.60;77.41;95199.16;5045733;28;20272;-83
2022/09/13 04:56:09;;;;;;;3.30;2.05;;;;;;;13.61;77.21;95206.03;5032693;28;20213;-83
2022/09/13 04:58:34;;;;;;;2.42;1.55;;;;;;;13.61;77.21;95216.47;5040390;28;20190;-83
2022/09/13 05:01:01;;;;;;;3.00;1.70;;;;;;;13.69;76.86;95205.94;5041824;28;20265;-83
2022/09/13 05:03:29;;;;;;;2.67;1.77;;;;;;;13.65;76.73;95206.47;5013214;28;20224;-84
2022/09/13 05:06:00;;;;;;;4.72;1.83;;;;;;;13.63;77.23;95204.03;5035087;28;20628;-84
2022/09/13 05:08:26;;;;;;;1.90;1.80;;;;;;;13.55;77.45;95204.91;5028209;28;20202;-84
2022/09/13 05:10:51;;;;;;;3.97;1.85;;;;;;;13.57;77.33;95204.72;5037958;28;20196;-83
2022/09/13 05:13:16;;;;;;;4.50;2.13;;;;;;;13.62;77.34;95207.63;5042942;28;20177;-84
2022/09/13 05:15:42;;;;;;;2.13;2.03;;;;;;;13.65;77.48;95212.50;5043000;28;20279;-83
2022/09/13 05:18:07;;;;;;;2.47;1.80;;;;;;;13.70;76.69;95212.81;5038911;28;20194;-83
2022/09/13 05:20:33;;;;;;;2.33;2.00;;;;;;;13.72;76.59;95223.88;5040771;28;20210;-83
2022/09/13 05:22:58;;;;;;;2.92;2.10;;;;;;;13.87;75.97;95222.13;5046099;28;20189;-82
2022/09/13 05:25:24;;;;;;;3.80;1.67;;;;;;;13.97;75.53;95216.66;5031944;28;20674;-83
2022/09/13 05:27:49;;;;;;;2.47;1.90;;;;;;;14.06;75.29;95230.47;5025477;28;20663;-83
2022/09/13 05:30:15;;;;;;;2.33;2.13;;;;;;;14.13;75.18;95231.34;5024643;28;20194;-84
2022/09/13 05:32:40;;;;;;;1.90;1.80;;;;;;;14.24;74.69;95227.53;5044796;28;20304;-83
2022/09/13 05:35:06;;;;;;;2.00;1.88;;;;;;;14.33;74.84;95229.88;5020287;28;20591;-83
2022/09/13 05:37:31;;;;;;;2.20;1.70;;;;;;;14.40;74.66;95228.19;5014294;28;20194;-83
2022/09/13 05:39:56;;;;;;;2.28;2.08;;;;;;;14.47;74.63;95227.47;5034123;28;20598;-82
2022/09/13 05:42:22;;;;;;;2.92;1.55;;;;;;;14.58;74.54;95222.63;5036855;28;20639;-82
2022/09/13 05:44:47;;;;;;;2.35;1.60;;;;;;;14.66;74.83;95219.91;5043530;28;20205;-83
2022/09/13 05:47:13;;;;;;;1.80;1.70;;;;;;;14.68;74.84;95227.59;5026301;28;20186;-83
2022/09/13 05:49:38;;;;;;;2.00;1.90;;;;;;;14.76;74.86;95229.31;5016268;28;20182;-82
2022/09/13 05:52:03;;;;;;;3.78;1.67;;;;;;;14.81;74.99;95221.72;5042078;28;20643;-83
2022/09/13 05:54:29;;;;;;;3.28;1.50;;;;;;;14.90;74.22;95229.28;5040022;28;20694;-83
2022/09/13 05:56:56;;;;;;;2.38;1.73;;;;;;;15.01;73.83;95231.41;5026811;28;20213;-82
2022/09/13 05:59:21;;;;;;;1.88;1.63;;;;;;;15.08;73.57;95238.53;5031128;28;20194;-83
2022/09/13 06:01:47;;;;;;;1.88;1.77;;;;;;;15.06;73.03;95249.19;5047850;28;20186;-82
2022/09/13 06:04:13;;;;;;;2.17;1.58;;;;;;;15.19;72.82;95256.38;5033693;28;20186;-83
2022/09/13 06:06:38;;;;;;;1.92;1.40;;;;;;;15.22;72.47;95258.66;5044776;28;20246;-82
2022/09/13 06:09:07;;;;;;;2.70;1.50;;;;;;;15.19;72.40;95259.00;5041057;28;20658;-83
2022/09/13 06:11:32;;;;;;;3.70;1.42;;;;;;;15.22;73.03;95254.22;5031338;28;20650;-83
2022/09/13 06:13:57;;;;;;;3.05;1.90;;;;;;;15.27;73.85;95253.66;5027933;28;20267;-83
2022/09/13 06:16:23;;;;;;;1.88;1.30;;;;;;;15.41;73.54;95242.34;5047352;28;20687;-83
2022/09/13 06:18:48;;;;;;;1.60;1.50;;;;;;;15.50;73.37;95240.44;5034165;28;20207;-82
2022/09/13 06:21:23;;;;;;;1.50;1.40;;;;;;;15.65;72.85;95238.63;5036460;28;20182;-82
2022/09/13 06:23:52;;;;;;;2.92;1.80;;;;;;;15.67;72.77;95241.06;5048925;28;20331;-81
2022/09/13 06:26:20;;;;;;;2.97;1.80;;;;;;;15.76;72.00;95245.16;5046880;28;20225;-81
2022/09/13 06:28:47;;;;;;;3.67;1.63;;;;;;;15.94;71.49;95248.16;5043581;28;20702;-82
2022/09/13 06:31:14;;;;;;;2.70;1.80;;;;;;;16.18;70.76;95240.91;5024372;28;20194;-82
2022/09/13 06:33:41;;;;;;;2.20;1.88;;;;;;;16.39;70.66;95243.47;5024429;28;20281;-81
2022/09/13 06:36:19;;;;;;;1.75;1.50;;;;;;;16.57;70.05;95245.63;5055375;28;20300;-83
2022/09/13 06:38:46;;;;;;;2.67;1.50;;;;;;;16.82;69.64;95240.75;5047573;28;20186;-82
2022/09/13 06:41:22;;;;;;;2.90;1.40;;;;;;;16.92;68.23;95241.22;5043445;28;20182;-82
2022/09/13 06:43:55;;;;;;;1.52;1.42;;;;;;;17.26;67.84;95235.13;5046258;28;20177;-82
2022/09/13 06:46:20;;;;;;;1.40;1.20;;;;;;;17.53;66.83;95234.19;5046110;28;20202;-82
2022/09/13 06:48:47;;;;;;;2.13;1.50;;;;;;;17.71;66.91;95223.16;5043827;28;20661;-82
2022/09/13 06:51:14;;;;;;;2.67;1.90;;;;;;;17.97;66.21;95230.25;5029303;28;20305;-82
2022/09/13 06:53:40;;;;;;;1.58;1.48;;;;;;;18.21;65.35;95230.69;5051984;28;20540;-82
2022/09/13 06:56:15;;;;;;;2.58;1.55;;;;;;;18.38;63.55;95232.72;5052757;28;20240;-82
2022/09/13 06:58:42;;;;;;;2.47;1.20;;;;;;;18.57;62.74;95238.16;5061767;28;20216;-83
2022/09/13 07:01:13;;;;;;;1.95;1.50;;;;;;;18.90;60.35;95236.25;5047979;28;20178;-81
2022/09/13 07:03:43;;;;;;;1.20;1.10;;;;;;;19.31;59.00;95226.41;5060956;28;20201;-81
2022/09/13 07:06:13;;;;;;;1.45;1.35;;;;;;;19.65;57.42;95231.34;5060304;28;20512;-82
2022/09/13 07:08:40;;;;;;;1.30;1.20;;;;;;;19.88;55.47;95222.91;5039320;28;20683;-82
2022/09/13 07:11:06;;;;;;;2.58;1.30;;;;;;;20.04;54.88;95218.91;5036122;28;20208;-81
2022/09/13 07:13:31;;;;;;;1.40;1.30;;;;;;;20.13;53.97;95209.72;5044351;28;20186;-82
2022/09/13 07:16:00;;;;;;;1.98;1.33;;;;;;;20.29;53.63;95213.66;5046707;28;20236;-83
2022/09/13 07:18:25;;;;;;;1.20;1.10;;;;;;;20.40;54.06;95205.03;5040997;28;20269;-83
2022/09/13 07:20:50;;;;;;;1.65;1.40;;;;;;;20.28;55.60;95212.06;5063279;28;20195;-83
2022/09/13 07:23:16;;;;;;;1.45;1.35;;;;;;;20.18;55.48;95223.09;5058406;28;20670;-83
2022/09/13 07:25:41;;;;;;;3.25;1.50;;;;;;;20.26;55.99;95220.19;5037789;28;20206;-83
2022/09/13 07:28:06;;;;;;;1.65;1.45;;;;;;;20.45;56.35;95222.91;5051275;28;20185;-83
2022/09/13 07:30:32;;;;;;;1.65;1.40;;;;;;;20.80;54.46;95231.88;5049088;28;20178;-83
2022/09/13 07:32:57;;;;;;;1.50;1.40;;;;;;;21.06;53.67;95232.63;5040781;28;20503;-82
2022/09/13 07:35:23;;;;;;;1.83;1.20;;;;;;;21.25;52.34;95231.59;5039691;28;20225;-84
2022/09/13 07:37:48;;;;;;;3.20;1.17;;;;;;;21.36;52.26;95224.78;5049131;28;20244;-83
2022/09/13 07:40:13;;;;;;;2.10;1.40;;;;;;;21.60;51.07;95217.78;5028876;28;20193;-83
2022/09/13 07:42:39;;;;;;;1.15;1.05;;;;;;;21.77;48.95;95230.13;5045183;28;20190;-82
2022/09/13 07:45:05;;;;;;;1.80;1.20;;;;;;;21.83;49.80;95225.81;5028553;28;20283;-83
2022/09/13 07:47:33;;;;;;;1.10;1.00;;;;;;;21.97;50.04;95232.50;5047571;28;20265;-83
2022/09/13 07:49:58;;;;;;;1.00;1.00;;;;;;;22.14;49.29;95237.16;5042805;28;20190;-83
2022/09/13 07:52:24;;;;;;;2.72;1.30;;;;;;;22.43;47.78;95228.34;5023542;28;20611;-83
2022/09/13 07:54:49;;;;;;;2.63;1.13;;;;;;;22.41;49.60;95217.19;5049794;28;20237;-83
2022/09/13 07:57:14;;;;;;;2.08;1.15;;;;;;;22.46;50.59;95217.31;5024316;28;20230;-83
2022/09/13 07:59:39;;;;;;;1.38;1.27;;;;;;;22.52;50.85;95220.88;5041369;28;20205;-83
2022/09/13 08:02:05;;;;;;;2.40;1.30;;;;;;;22.58;50.32;95217.31;5024072;28;20186;-83
2022/09/13 08:04:30;;;;;;;1.75;1.45;;;;;;;22.58;50.46;95217.31;5027013;28;20177;-82
2022/09/13 08:06:55;;;;;;;1.45;1.30;;;;;;;22.61;50.59;95219.50;5054628;28;20206;-82
2022/09/13 08:09:21;;;;;;;3.17;1.17;;;;;;;22.47;50.47;95232.16;5051585;28;20682;-82
2022/09/13 08:11:48;;;;;;;2.85;1.13;;;;;;;22.21;50.85;95229.94;5046282;28;20277;-81
2022/09/13 08:14:15;;;;;;;1.40;1.30;;;;;;;22.45;50.75;95233.44;5047415;28;20194;-81
2022/09/13 08:16:40;;;;;;;1.30;1.20;;;;;;;22.73;50.70;95215.03;5051197;28;20271;-80
2022/09/13 08:19:11;;;;;;;1.63;1.00;;;;;;;22.87;51.32;95211.09;5039329;28;20260;-81
2022/09/13 08:21:38;;;;;;;2.72;1.40;;;;;;;23.06;48.52;95211.00;5039020;28;20189;-82
2022/09/13 08:24:05;;;;;;;1.55;1.20;;;;;;;23.16;47.76;95217.28;5034200;28;20620;-82
2022/09/13 08:26:31;;;;;;;1.40;1.30;;;;;;;23.17;48.37;95220.75;5037439;28;20232;-81
2022/09/13 08:28:59;;;;;;;3.88;1.35;;;;;;;23.22;47.69;95215.53;5048133;28;20182;-81
2022/09/13 08:31:25;;;;;;;2.30;1.30;;;;;;;23.49;45.72;95223.75;5036086;28;20559;-80
2022/09/13 08:33:51;;;;;;;1.45;1.23;;;;;;;23.43;45.67;95224.72;5038219;28;20189;-80
2022/09/13 08:36:17;;;;;;;2.90;1.20;;;;;;;23.49;46.38;95226.41;5048768;28;20296;-81
2022/09/13 08:38:47;;;;;;;2.33;1.13;;;;;;;23.34;47.27;95226.13;5031736;28;20201;-81
2022/09/13 08:41:34;;;;;;;2.83;1.30;;;;;;;23.33;46.92;95227.16;5047696;28;20678;-81
2022/09/13 08:44:33;;;;;;;3.00;1.10;;;;;;;23.45;45.91;95222.63;5050191;28;20194;-81
2022/09/13 08:47:39;;;;;;;1.25;1.00;;;;;;;23.53;45.40;95213.50;5043365;28;20209;-81
2022/09/13 08:50:21;;;;;;;3.05;1.20;;;;;;;23.47;46.21;95215.22;5053132;28;20614;-81
2022/09/13 08:52:54;;;;;;;1.75;1.00;;;;;;;23.80;44.16;95211.91;5056320;28;20192;-81
2022/09/13 08:55:46;;;;;;;1.20;1.10;;;;;;;23.97;44.07;95217.25;5051753;28;20207;-81
2022/09/13 08:58:41;;;;;;;1.33;1.13;;;;;;;24.04;45.04;95220.56;5049691;28;20189;-81
2022/09/13 09:01:13;;;;;;;4.65;1.10;;;;;;;24.13;43.92;95213.81;5045718;28;20689;-81
2022/09/13 09:03:53;;;;;;;1.60;1.20;;;;;;;24.43;43.54;95220.66;5055713;28;20201;-80
2022/09/13 09:06:21;;;;;;;1.83;1.17;;;;;;;24.61;42.87;95224.94;5051431;28;20194;-81
2022/09/13 09:08:57;;;;;;;4.72;1.05;;;;;;;24.80;42.45;95211.13;5032654;28;20178;-81
2022/09/13 09:11:43;;;;;;;1.48;1.13;;;;;;;24.75;41.64;95220.91;5032441;28;20199;-81
2022/09/13 09:14:22;;;;;;;2.35;1.23;;;;;;;24.60;42.98;95228.63;5046088;28;20224;-80
2022/09/13 09:16:51;;;;;;;1.45;1.35;;;;;;;24.73;44.89;95226.44;5045194;28;20276;-81
2022/09/13 09:19:34;;;;;;;2.90;1.40;;;;;;;25.04;44.48;95224.25;5018502;28;20191;-81
2022/09/13 09:22:03;;;;;;;3.42;1.30;;;;;;;24.88;43.88;95231.16;5034268;28;20201;-81
2022/09/13 09:24:33;;;;;;;3.70;1.70;;;;;;;24.59;44.57;95230.47;5030909;28;20186;-81
2022/09/13 09:27:00;;;;;;;1.50;1.40;;;;;;;24.81;45.43;95231.31;5026108;28;20674;-80
2022/09/13 09:29:28;;;;;;;2.63;1.33;;;;;;;24.62;44.36;95231.84;5042513;28;20198;-81
2022/09/13 09:32:08;;;;;;;1.70;1.60;;;;;;;24.85;44.50;95239.63;5034308;28;20181;-81
2022/09/13 09:35:08;;;;;;;1.48;1.38;;;;;;;24.98;42.93;95241.91;5052523;28;20189;-80
2022/09/13 09:37:35;;;;;;;1.50;1.40;;;;;;;24.71;43.65;95251.63;5052747;28;20200;-81
2022/09/13 09:40:09;;;;;;;1.35;1.20;;;;;;;24.50;44.59;95253.16;5032463;28;20189;-81
2022/09/13 09:42:43;;;;;;;2.53;1.40;;;;;;;24.44;44.79;95254.94;5032964;28;20539;-81
2022/09/13 09:45:31;;;;;;;1.60;1.10;;;;;;;24.70;44.68;95255.31;5050989;28;20217;-82
2022/09/13 09:48:00;;;;;;;1.90;1.30;;;;;;;24.50;44.44;95259.28;5020969;28;20611;-80
2022/09/13 09:50:28;;;;;;;2.33;1.30;;;;;;;24.48;45.45;95264.03;5021246;28;20190;-81
2022/09/13 09:53:06;;;;;;;1.10;1.10;;;;;;;24.49;42.50;95262.19;5026333;28;20193;-80
2022/09/13 09:55:39;;;;;;;1.13;1.02;;;;;;;24.67;40.91;95263.78;5025944;28;20209;-80
2022/09/13 09:58:07;;;;;;;0.85;0.85;;;;;;;24.79;40.75;95261.84;5042513;28;20196;-81
2022/09/13 10:00:38;;;;;;;1.50;0.93;;;;;;;24.78;41.79;95262.88;5041782;28;20184;-81
2022/09/13 10:03:16;;;;;;;1.48;1.00;;;;;;;24.85;41.13;95255.56;5037718;28;20674;-82
2022/09/13 10:05:41;;;;;;;2.05;1.05;;;;;;;24.86;43.01;95251.84;5019914;28;20201;-81
2022/09/13 10:08:07;;;;;;;2.10;1.25;;;;;;;25.26;42.12;95245.50;5023982;28;20200;-81
2022/09/13 10:10:41;;;;;;;1.00;0.90;;;;;;;25.26;40.44;95235.66;5027197;28;20648;-82
2022/09/13 10:13:19;;;;;;;3.08;1.20;;;;;;;25.04;42.39;95240.19;5041652;28;20646;-82
2022/09/13 10:15:56;;;;;;;1.88;1.10;;;;;;;24.81;41.14;95241.94;5045946;28;20231;-82
2022/09/13 10:18:22;;;;;;;1.35;1.05;;;;;;;24.23;42.83;95252.97;5066505;28;20192;-81
2022/09/13 10:21:03;;;;;;;1.25;1.00;;;;;;;25.00;41.21;95241.66;5048539;28;20189;-82
2022/09/13 10:23:30;;;;;;;1.45;1.30;;;;;;;25.29;40.53;95242.38;5039421;28;20594;-82
2022/09/13 10:25:57;;;;;;;2.35;1.20;;;;;;;25.51;41.05;95256.44;5043403;28;20276;-82
2022/09/13 10:28:23;;;;;;;1.02;0.98;;;;;;;25.79;40.10;95249.34;5059697;28;20268;-82
2022/09/13 10:30:58;;;;;;;2.47;0.90;;;;;;;26.24;40.11;95247.16;5039052;28;20255;-82
2022/09/13 10:33:27;;;;;;;1.48;1.17;;;;;;;26.01;38.73;95242.13;5032482;28;20182;-82
2022/09/13 10:35:56;;;;;;;1.20;1.10;;;;;;;25.35;40.06;95236.03;5018516;28;20218;-82
2022/09/13 10:38:27;;;;;;;2.20;1.27;;;;;;;25.73;38.94;95232.53;5040746;28;20242;-81
2022/09/13 10:40:54;;;;;;;1.30;1.20;;;;;;;25.44;40.21;95223.94;5051695;28;20297;-82
2022/09/13 10:43:20;;;;;;;1.13;1.10;;;;;;;25.64;41.63;95228.69;5065352;28;20322;-81
2022/09/13 10:45:48;;;;;;;2.25;0.80;;;;;;;25.69;39.23;95234.84;5074058;28;20239;-82
2022/09/13 10:48:15;;;;;;;0.85;0.80;;;;;;;25.97;38.43;95233.03;5064472;28;20198;-81
2022/09/13 10:51:02;;;;;;;2.90;1.00;;;;;;;25.93;38.86;95237.25;5069432;28;20158;-81
2022/09/13 10:53:33;;;;;;;2.45;1.10;;;;;;;25.87;39.55;95233.72;5055823;28;20202;-80
2022/09/13 10:55:58;;;;;;;1.08;0.95;;;;;;;25.70;37.66;95228.50;5081620;28;20228;-82
2022/09/13 10:58:24;;;;;;;1.08;0.90;;;;;;;25.47;37.94;95236.75;5026782;28;20185;-82
2022/09/13 11:01:26;;;;;;;1.23;0.95;;;;;;;25.77;37.79;95244.28;5024635;28;20196;-83
2022/09/13 11:04:10;;;;;;;0.90;0.90;;;;;;;25.38;37.75;95254.16;5052014;28;20178;-83
2022/09/13 11:06:48;;;;;;;1.83;0.82;;;;;;;25.43;38.75;95240.94;5053647;28;20717;-82
2022/09/13 11:09:19;;;;;;;1.73;1.05;;;;;;;25.97;38.10;95249.81;5033128;28;20189;-83
2022/09/13 11:11:56;;;;;;;1.38;0.90;;;;;;;25.94;38.00;95244.19;5038347;28;20215;-82
2022/09/13 11:14:34;;;;;;;2.47;1.23;;;;;;;26.09;36.81;95240.88;5048137;28;20327;-83
2022/09/13 11:17:18;;;;;;;1.92;0.85;;;;;;;26.26;37.21;95231.72;5039660;28;20241;-83
2022/09/13 11:20:06;;;;;;;1.15;1.00;;;;;;;25.81;37.57;95239.28;5024887;28;20200;-83
2022/09/13 11:22:57;;;;;;;2.10;0.90;;;;;;;26.29;37.18;95234.94;5052696;28;20178;-83
2022/09/13 11:25:42;;;;;;;1.23;0.80;;;;;;;26.19;36.97;95235.63;5037974;28;20218;-79
2022/09/13 11:28:30;;;;;;;0.75;0.75;;;;;;;25.93;37.09;95240.72;5057582;28;20769;-79
2022/09/13 11:31:23;;;;;;;0.80;0.80;;;;;;;25.81;37.79;95237.41;5051872;28;20601;-79
2022/09/13 11:34:01;;;;;;;1.58;1.05;;;;;;;25.83;37.60;95237.97;5037173;28;20209;-79
2022/09/13 11:36:41;;;;;;;2.38;1.50;;;;;;;25.62;40.49;95242.25;5038830;28;20214;-78
2022/09/13 11:39:30;;;;;;;1.92;1.20;;;;;;;24.97;43.07;95242.97;5045549;28;20277;-78
2022/09/13 11:42:09;;;;;;;2.03;1.30;;;;;;;25.44;42.59;95247.84;5047910;28;20178;-79
2022/09/13 11:45:00;;;;;;;1.48;1.25;;;;;;;25.42;42.49;95244.63;5039087;28;20186;-78
2022/09/13 11:47:41;;;;;;;4.40;1.50;;;;;;;25.17;42.93;95239.81;5033070;28;20209;-79
2022/09/13 11:50:32;;;;;;;6.38;1.98;;;;;;;24.95;42.45;95241.63;5026678;28;20223;-79
2022/09/13 11:53:26;;;;;;;2.45;1.40;;;;;;;24.97;41.68;95240.31;5046732;28;20185;-79
2022/09/13 11:56:00;;;;;;;4.22;1.30;;;;;;;25.16;41.60;95232.88;5033925;28;20336;-77